Time;durP1;ratioP1;P1;durP2;ratioP2;P2;SDS_P1;SDS_P2;PMS_P1;PMS_P2;Temp;Humidity;BMP_temperature;BMP_pressure;BME280_temperature;BME280_humidity;BME280_pressure;Samples;Min_cycle;Max_cycle;Signal;HPM_P1;HPM_P2
2021/06/08 00:00:25;;;;;;;15.98;9.48;;;;;;;12.19;69.21;99286.85;4204137;82;21014;-77
2021/06/08 00:06:28;;;;;;;13.58;8.68;;;;;;;12.20;69.07;99287.08;4195630;83;21137;-77
2021/06/08 00:12:30;;;;;;;13.03;7.92;;;;;;;12.08;69.52;99286.76;4179660;83;21083;-77
2021/06/08 00:18:31;;;;;;;18.70;9.28;;;;;;;11.91;70.10;99281.89;4179786;83;21056;-77
2021/06/08 00:24:33;;;;;;;23.35;11.53;;;;;;;11.99;69.76;99282.17;4179088;83;21070;-77
2021/06/08 00:30:35;;;;;;;15.35;7.92;;;;;;;11.87;70.02;99277.53;4204734;82;21109;-77
2021/06/08 00:36:36;;;;;;;14.40;8.15;;;;;;;11.84;70.60;99275.55;4234490;82;21065;-77
2021/06/08 00:42:38;;;;;;;15.83;9.15;;;;;;;11.74;70.80;99274.27;4220612;81;21061;-76
2021/06/08 00:48:39;;;;;;;14.53;10.68;;;;;;;11.65;70.89;99268.27;4231211;82;21053;-76
2021/06/08 00:54:40;;;;;;;23.35;9.85;;;;;;;11.57;71.29;99264.44;4094178;84;46551;-77
2021/06/08 01:00:42;;;;;;;17.92;10.28;;;;;;;11.52;71.21;99262.02;4050725;85;21073;-77
2021/06/08 01:06:47;;;;;;;17.30;9.65;;;;;;;11.52;71.40;99260.66;4155925;84;21532;-76
2021/06/08 01:12:46;;;;;;;13.18;8.93;;;;;;;11.41;71.39;99259.17;4160796;84;22216;-77
2021/06/08 01:18:49;;;;;;;19.12;10.48;;;;;;;11.50;71.83;99260.23;4166347;84;21609;-77
2021/06/08 01:24:52;;;;;;;15.68;8.03;;;;;;;11.36;71.79;99264.97;4071002;86;21065;-77
2021/06/08 01:30:55;;;;;;;19.15;9.55;;;;;;;11.31;72.48;99263.92;4046254;86;20999;-77
2021/06/08 01:36:57;;;;;;;17.67;10.13;;;;;;;11.41;72.68;99265.22;4041308;85;21015;-77
2021/06/08 01:42:58;;;;;;;19.70;10.95;;;;;;;11.48;72.72;99266.69;4053066;85;21460;-77
2021/06/08 01:49:00;;;;;;;18.70;10.00;;;;;;;11.41;72.42;99255.63;4119453;83;20991;-77
2021/06/08 01:55:24;;;;;;;13.68;9.75;;;;;;;11.36;72.82;99261.44;4127751;83;21049;-77
2021/06/08 02:01:34;;;;;;;19.77;11.30;;;;;;;11.51;72.96;99262.59;4057580;86;20994;-77
2021/06/08 02:08:04;;;;;;;16.73;10.75;;;;;;;11.49;72.63;99264.14;4052223;86;21496;-77
2021/06/08 02:14:21;;;;;;;16.12;9.43;;;;;;;11.32;72.63;99264.73;4045860;86;21076;-77
2021/06/08 02:20:28;;;;;;;17.48;10.63;;;;;;;11.15;72.67;99274.88;4020921;86;21579;-76
2021/06/08 02:26:33;;;;;;;18.40;10.35;;;;;;;10.95;73.01;99277.75;4088710;85;21061;-77
2021/06/08 02:32:37;;;;;;;14.03;9.18;;;;;;;10.90;73.17;99276.69;4131271;84;21062;-77
2021/06/08 02:38:39;;;;;;;15.18;9.68;;;;;;;11.00;73.76;99278.80;4025653;87;21058;-77
2021/06/08 02:44:42;;;;;;;16.10;10.72;;;;;;;10.97;73.43;99281.48;4140392;83;21074;-77
2021/06/08 02:50:48;;;;;;;13.43;8.83;;;;;;;10.95;73.82;99280.48;4141828;84;21023;-77
2021/06/08 02:56:50;;;;;;;12.93;7.17;;;;;;;11.12;73.81;99289.33;4141149;84;21039;-77
2021/06/08 03:02:57;;;;;;;14.65;9.85;;;;;;;11.20;73.76;99290.41;4147987;83;21138;-77
2021/06/08 03:09:03;;;;;;;;;;;;;;;11.24;73.80;99302.22;4141847;84;21479;-77
2021/06/08 03:15:06;;;;;;;17.85;10.82;;;;;;;11.32;74.40;99302.52;4143414;84;20161;-76
2021/06/08 03:21:16;;;;;;;13.28;9.35;;;;;;;11.34;73.68;99309.77;4153364;84;21086;-77
2021/06/08 03:27:19;;;;;;;13.13;8.58;;;;;;;11.39;73.94;99309.45;4148792;83;21344;-77
2021/06/08 03:33:21;;;;;;;14.35;9.78;;;;;;;11.54;73.82;99319.42;4118428;83;21049;-77
2021/06/08 03:39:25;;;;;;;17.45;8.90;;;;;;;11.61;73.36;99319.52;4107071;84;21015;-79
2021/06/08 03:45:26;;;;;;;15.70;9.68;;;;;;;11.46;73.81;99327.38;4126640;84;21029;-77
2021/06/08 03:51:30;;;;;;;15.68;9.93;;;;;;;11.68;73.73;99325.10;4123053;84;21104;-79
2021/06/08 03:57:38;;;;;;;16.12;9.63;;;;;;;11.84;73.60;99322.17;4128796;84;21085;-76
2021/06/08 04:03:37;;;;;;;15.95;9.55;;;;;;;11.91;73.46;99316.18;4108316;84;21025;-77
2021/06/08 04:09:39;;;;;;;17.55;9.55;;;;;;;11.99;73.46;99322.53;4131703;84;21094;-77
2021/06/08 04:15:42;;;;;;;16.27;9.60;;;;;;;12.13;73.42;99323.47;4078646;86;21031;-78
2021/06/08 04:21:46;;;;;;;16.67;9.95;;;;;;;12.28;73.31;99320.26;4026567;87;21039;-78
2021/06/08 04:27:47;;;;;;;16.40;9.93;;;;;;;12.41;73.24;99324.31;4053565;86;21717;-77
2021/06/08 04:33:49;;;;;;;14.03;10.30;;;;;;;12.47;73.33;99315.35;4059217;86;21161;-77
2021/06/08 04:39:51;;;;;;;14.95;8.78;;;;;;;12.61;73.32;99318.78;4025850;86;21491;-77
2021/06/08 04:45:52;;;;;;;13.13;8.88;;;;;;;12.78;73.25;99322.86;4146797;83;21123;-77
2021/06/08 04:51:55;;;;;;;13.13;8.40;;;;;;;12.97;73.16;99332.19;4134683;84;21118;-77
2021/06/08 04:57:59;;;;;;;12.65;8.20;;;;;;;13.15;73.13;99332.56;4140905;83;21058;-81
2021/06/08 05:04:09;;;;;;;11.65;7.75;;;;;;;13.32;73.09;99329.70;4145975;84;21008;-77
2021/06/08 05:10:13;;;;;;;11.10;7.75;;;;;;;13.49;73.17;99335.30;4149135;83;21014;-78
2021/06/08 05:16:38;;;;;;;;;;;;;;;;;;;;;
2021/06/08 05:22:51;;;;;;;9.23;6.78;;;;;;;13.91;73.25;99338.22;4136107;84;21034;-78
2021/06/08 05:29:00;;;;;;;12.63;7.45;;;;;;;14.26;73.27;99338.92;4075834;83;5358667;-77
2021/06/08 05:35:17;;;;;;;14.38;7.95;;;;;;;14.64;73.01;99328.55;4201428;83;21016;-78
2021/06/08 05:41:31;;;;;;;17.82;7.33;;;;;;;14.95;72.73;99331.88;4171861;83;21658;-78
2021/06/08 05:48:10;;;;;;;;;;;;;;;;;;;;;
2021/06/08 06:00:41;;;;;;;13.45;7.10;;;;;;;15.76;72.08;99326.15;4045445;86;21091;-78
2021/06/08 06:06:52;;;;;;;19.17;6.72;;;;;;;16.04;71.94;99325.20;4078882;85;21042;-78
2021/06/08 06:13:15;;;;;;;11.38;7.03;;;;;;;16.34;71.90;99333.71;4085649;84;21034;-78
2021/06/08 06:19:17;;;;;;;8.73;6.95;;;;;;;16.62;71.33;99328.01;4064718;85;21042;-78
2021/06/08 06:25:34;;;;;;;9.48;6.87;;;;;;;16.94;70.32;99321.63;4049394;86;21538;-80
2021/06/08 06:32:00;;;;;;;11.80;7.55;;;;;;;17.30;70.11;99324.23;4109678;84;21039;-78
2021/06/08 06:38:27;;;;;;;10.53;6.60;;;;;;;17.57;69.85;99322.97;4094174;85;21027;-80
2021/06/08 06:51:11;;;;;;;;;;;;;;;;;;;;;
2021/06/08 06:57:14;;;;;;;11.95;6.37;;;;;;;18.76;68.69;99319.91;4193662;83;21117;-79
2021/06/08 07:03:43;;;;;;;11.12;6.37;;;;;;;19.44;67.85;99314.13;3862980;89;22560;-79
2021/06/08 07:16:23;;;;;;;14.13;6.72;;;;;;;21.25;65.62;99310.34;3997217;87;21104;-80
2021/06/08 07:22:52;;;;;;;12.55;7.17;;;;;;;22.15;64.73;99310.97;4008580;87;21005;-77
2021/06/08 07:29:03;;;;;;;14.30;7.37;;;;;;;22.98;63.32;99312.88;4008287;87;21435;-78
2021/06/08 07:35:36;;;;;;;11.08;6.83;;;;;;;23.56;62.25;99313.27;4137839;83;21098;-78
2021/06/08 07:41:44;;;;;;;15.20;7.70;;;;;;;24.08;61.34;99313.33;4194230;83;21089;-77
2021/06/08 07:47:50;;;;;;;11.10;6.65;;;;;;;24.47;59.37;99318.17;4192317;83;21016;-78
2021/06/08 07:53:53;;;;;;;7.97;5.93;;;;;;;24.68;58.81;99306.17;4196785;83;21050;-79
2021/06/08 07:59:55;;;;;;;9.68;6.35;;;;;;;24.73;57.26;99312.53;4197022;83;21266;-78
2021/06/08 08:06:10;;;;;;;10.85;6.08;;;;;;;24.78;55.92;99312.54;4196717;83;20994;-79
2021/06/08 08:12:18;;;;;;;14.00;7.72;;;;;;;24.75;55.65;99311.45;4199211;83;21696;-79
2021/06/08 08:18:22;;;;;;;12.40;7.90;;;;;;;24.88;55.08;99315.53;4177425;83;21050;-80
2021/06/08 08:24:24;;;;;;;13.25;7.08;;;;;;;25.02;54.30;99313.53;4202122;83;21055;-79
2021/06/08 08:30:25;;;;;;;9.03;5.45;;;;;;;25.14;53.96;99309.20;4205935;83;21065;-83
2021/06/08 08:36:35;;;;;;;9.70;5.28;;;;;;;25.19;52.91;99307.19;4205255;83;20983;-80
2021/06/08 08:42:38;;;;;;;9.98;5.30;;;;;;;25.13;52.42;99299.25;4211156;83;21034;-78
2021/06/08 08:48:44;;;;;;;10.55;4.78;;;;;;;25.25;52.05;99298.92;4200977;83;21045;-82
2021/06/08 08:54:48;;;;;;;7.83;3.47;;;;;;;25.33;50.73;99297.38;4206124;83;22308;-78
2021/06/08 09:00:50;;;;;;;5.78;2.95;;;;;;;25.31;49.71;99292.23;4203451;83;21096;-78
2021/06/08 09:06:53;;;;;;;5.95;3.55;;;;;;;25.22;47.55;99298.45;4208849;83;22074;-79
2021/06/08 09:12:54;;;;;;;3.15;2.52;;;;;;;25.21;47.02;99290.70;4211918;83;21078;-79
2021/06/08 09:18:56;;;;;;;3.87;2.45;;;;;;;25.41;46.14;99287.45;4198902;83;21001;-79
2021/06/08 09:24:57;;;;;;;4.22;2.52;;;;;;;25.57;45.17;99291.34;4208166;83;21070;-79
2021/06/08 09:31:04;;;;;;;2.85;2.50;;;;;;;25.66;44.12;99282.91;4209978;83;21027;-79
2021/06/08 09:37:06;;;;;;;3.92;3.20;;;;;;;25.94;43.07;99280.20;4205374;83;20983;-82
2021/06/08 09:43:11;;;;;;;5.90;3.47;;;;;;;26.29;42.20;99274.36;4203193;83;21051;-80
2021/06/08 09:49:35;;;;;;;4.35;3.45;;;;;;;26.72;41.14;99271.03;4200429;83;21020;-79
2021/06/08 09:56:02;;;;;;;5.40;4.40;;;;;;;26.42;41.32;99269.28;4202729;83;21110;-80
2021/06/08 10:02:26;;;;;;;9.58;4.80;;;;;;;26.58;40.85;99270.30;4201496;83;21058;-79
2021/06/08 10:08:27;;;;;;;8.23;4.22;;;;;;;25.99;41.34;99277.58;4202418;83;21026;-79
2021/06/08 10:14:48;;;;;;;6.50;4.50;;;;;;;25.43;41.66;99277.95;4199122;83;21462;-80
2021/06/08 10:21:10;;;;;;;7.83;4.20;;;;;;;25.01;41.83;99280.55;4039396;86;21053;-83
2021/06/08 10:27:18;;;;;;;5.80;4.03;;;;;;;24.69;41.51;99268.52;4177425;83;21109;-79
2021/06/08 10:33:25;;;;;;;5.12;3.83;;;;;;;24.71;41.71;99266.05;4210556;83;21543;-79
2021/06/08 10:39:31;;;;;;;9.90;4.47;;;;;;;24.72;42.18;99266.81;4217178;83;21022;-79
2021/06/08 10:45:55;;;;;;;17.60;4.90;;;;;;;25.39;43.16;99260.50;4217548;83;21154;-83
2021/06/08 10:52:12;;;;;;;6.58;3.98;;;;;;;26.54;43.60;99258.48;4213135;83;21052;-80
2021/06/08 10:59:01;;;;;;;8.85;4.20;;;;;;;27.25;40.99;99252.88;4210672;83;21073;-80
2021/06/08 11:05:17;;;;;;;10.65;5.58;;;;;;;27.86;36.60;99244.18;4129662;83;21038;-79
2021/06/08 11:11:41;;;;;;;13.65;5.60;;;;;;;27.79;37.06;99244.55;4109521;84;21041;-81
2021/06/08 11:17:43;;;;;;;6.40;3.52;;;;;;;28.02;37.11;99235.28;4117685;85;21050;-79
2021/06/08 11:23:55;;;;;;;6.72;4.03;;;;;;;28.21;37.30;99233.77;4111752;85;21110;-80
2021/06/08 11:29:58;;;;;;;5.95;3.67;;;;;;;28.85;36.37;99219.75;4112521;84;21676;-79
2021/06/08 11:36:20;;;;;;;6.45;3.72;;;;;;;29.83;36.28;99217.78;4076888;86;21617;-78
2021/06/08 11:42:28;;;;;;;4.33;3.77;;;;;;;30.44;35.45;99214.81;4064369;86;21036;-78
2021/06/08 11:48:36;;;;;;;7.08;4.10;;;;;;;30.65;34.76;99215.45;4069936;86;21106;-79
2021/06/08 11:54:44;;;;;;;5.97;3.95;;;;;;;30.02;35.84;99216.91;4079788;86;21062;-80
2021/06/08 12:00:54;;;;;;;8.48;4.20;;;;;;;29.36;34.99;99203.59;4080248;86;21056;-80
2021/06/08 12:07:10;;;;;;;7.83;4.12;;;;;;;28.64;35.41;99211.17;4075556;84;21056;-79
2021/06/08 12:13:13;;;;;;;11.00;4.95;;;;;;;28.16;35.57;99216.19;4079355;86;21048;-80
2021/06/08 12:19:14;;;;;;;10.95;5.37;;;;;;;27.53;36.01;99207.82;4078282;86;21050;-78
2021/06/08 12:25:16;;;;;;;8.73;4.90;;;;;;;27.12;36.15;99208.80;4081450;86;21694;-79
2021/06/08 12:31:20;;;;;;;7.92;4.58;;;;;;;26.85;36.42;99199.97;4070512;86;21506;-79
2021/06/08 12:37:24;;;;;;;8.78;5.92;;;;;;;26.78;37.03;99200.96;4036530;86;21404;-79
2021/06/08 12:43:26;;;;;;;7.78;5.20;;;;;;;26.69;37.19;99193.98;4028733;87;21054;-79
2021/06/08 12:49:37;;;;;;;8.70;4.60;;;;;;;26.54;37.14;99193.13;4038780;86;21152;-79
2021/06/08 12:55:38;;;;;;;4.92;4.37;;;;;;;26.49;36.67;99187.55;4035920;87;21106;-81
2021/06/08 13:01:40;;;;;;;6.58;4.15;;;;;;;26.39;36.87;99183.23;4034801;87;21125;-79
2021/06/08 13:07:44;;;;;;;9.58;4.40;;;;;;;26.30;36.94;99185.31;4042847;87;21134;-80
2021/06/08 13:13:46;;;;;;;5.90;4.25;;;;;;;26.14;37.37;99177.45;4026691;87;21124;-80
2021/06/08 13:19:48;;;;;;;7.28;4.40;;;;;;;26.04;37.94;99176.58;4040203;86;21032;-80
2021/06/08 13:26:12;;;;;;;7.40;4.45;;;;;;;26.11;38.06;99174.81;4032192;86;21644;-79
2021/06/08 13:32:35;;;;;;;9.03;4.28;;;;;;;26.36;38.25;99169.40;4046724;85;21586;-79
2021/06/08 13:38:37;;;;;;;5.80;4.65;;;;;;;26.31;37.63;99172.20;4071880;85;21107;-79
2021/06/08 13:45:02;;;;;;;16.95;3.70;;;;;;;26.05;37.25;99162.70;4075743;86;21645;-79
2021/06/08 13:51:24;;;;;;;5.72;3.25;;;;;;;25.84;37.55;99163.06;4076650;86;21108;-81
2021/06/08 13:57:30;;;;;;;5.33;3.35;;;;;;;25.81;37.19;99166.81;4048188;86;21039;-79
2021/06/08 14:03:33;;;;;;;4.75;3.10;;;;;;;25.64;37.55;99153.64;4074554;86;21126;-79
2021/06/08 14:09:50;;;;;;;4.53;2.83;;;;;;;25.94;37.40;99158.98;4075114;84;21793;-79
2021/06/08 14:15:53;;;;;;;4.90;2.85;;;;;;;26.30;38.87;99155.84;4076700;86;22106;-78
2021/06/08 14:21:54;;;;;;;6.78;3.45;;;;;;;26.77;37.88;99151.65;4077796;86;21752;-80
2021/06/08 14:27:56;;;;;;;5.35;3.22;;;;;;;26.97;38.50;99138.52;4075408;86;21000;-79
2021/06/08 14:33:59;;;;;;;4.53;2.80;;;;;;;26.96;37.06;99129.95;4090570;85;21080;-79
2021/06/08 14:40:01;;;;;;;5.15;3.12;;;;;;;26.73;37.40;99123.77;4144277;84;21573;-78
2021/06/08 14:46:03;;;;;;;3.55;2.90;;;;;;;26.50;36.79;99121.72;4234173;83;21740;-78
2021/06/08 14:52:05;;;;;;;4.47;3.00;;;;;;;26.49;36.80;99119.39;4229851;83;21582;-79
2021/06/08 14:58:06;;;;;;;5.37;3.30;;;;;;;26.75;35.98;99113.46;4120339;85;21081;-77
2021/06/08 15:04:07;;;;;;;5.10;3.10;;;;;;;26.90;35.86;99112.84;4231394;83;21064;-78
2021/06/08 15:10:10;;;;;;;6.12;3.45;;;;;;;27.02;36.19;99112.58;4230450;83;21523;-78
2021/06/08 15:16:12;;;;;;;3.60;3.10;;;;;;;26.99;35.37;99105.73;4231177;83;21573;-78
2021/06/08 15:22:16;;;;;;;3.80;2.83;;;;;;;26.87;35.46;99108.20;4222947;83;21047;-78
2021/06/08 15:28:22;;;;;;;3.50;2.70;;;;;;;26.44;34.96;99101.80;4234564;83;21752;-78
2021/06/08 15:34:23;;;;;;;3.35;2.80;;;;;;;26.26;36.00;99092.91;4222065;83;21042;-77
2021/06/08 15:40:24;;;;;;;3.17;2.87;;;;;;;26.16;35.84;99091.41;4210570;83;21058;-78
2021/06/08 15:46:28;;;;;;;5.47;3.58;;;;;;;26.04;36.33;99086.81;4209683;83;21058;-77
2021/06/08 15:52:30;;;;;;;3.58;3.00;;;;;;;25.90;35.84;99084.69;4207825;83;21035;-79
2021/06/08 15:58:31;;;;;;;5.67;3.47;;;;;;;25.77;35.63;99084.13;4206077;83;21044;-78
2021/06/08 16:04:33;;;;;;;3.25;2.92;;;;;;;25.57;36.06;99083.91;4209953;83;21050;-78
2021/06/08 16:10:35;;;;;;;5.90;3.60;;;;;;;25.29;35.91;99086.63;4209584;83;21410;-78
2021/06/08 16:16:36;;;;;;;18.17;6.65;;;;;;;25.05;36.57;99089.33;4207438;83;21052;-78
2021/06/08 16:22:38;;;;;;;22.10;7.92;;;;;;;24.87;36.59;99081.59;4212306;83;20998;-80
2021/06/08 16:28:39;;;;;;;9.13;4.33;;;;;;;24.75;37.67;99082.52;4205991;83;21041;-78
2021/06/08 16:34:41;;;;;;;7.00;3.30;;;;;;;24.67;38.20;99077.11;4200673;83;21050;-78
2021/06/08 16:40:44;;;;;;;3.40;2.85;;;;;;;24.44;38.33;99072.26;4193253;83;21056;-78
2021/06/08 16:46:45;;;;;;;3.58;2.67;;;;;;;24.36;38.46;99073.02;4192902;83;21058;-81
2021/06/08 16:59:07;;;;;;;8.60;4.83;;;;;;;24.18;39.13;99069.58;4196793;83;21638;-78
2021/06/08 17:05:11;;;;;;;7.15;3.75;;;;;;;24.10;39.26;99073.91;4195591;83;21597;-78
2021/06/08 17:11:13;;;;;;;6.30;3.95;;;;;;;24.03;39.60;99074.23;4199833;83;21050;-78
2021/06/08 17:17:15;;;;;;;5.83;3.83;;;;;;;23.91;39.66;99073.72;4195654;83;21590;-77
2021/06/08 17:23:17;;;;;;;5.22;3.55;;;;;;;23.81;39.89;99071.34;4198706;83;20974;-77
2021/06/08 17:29:18;;;;;;;4.55;3.40;;;;;;;23.69;40.12;99066.66;4196801;83;21026;-78
2021/06/08 17:35:20;;;;;;;6.25;3.85;;;;;;;23.57;40.29;99061.32;4196169;83;21087;-77
2021/06/08 17:41:21;;;;;;;6.28;3.77;;;;;;;23.46;40.74;99068.59;4197236;83;21078;-77
2021/06/08 17:47:24;;;;;;;8.28;4.08;;;;;;;23.29;40.98;99065.23;4197178;83;21071;-77
2021/06/08 17:53:27;;;;;;;5.25;3.75;;;;;;;23.12;41.33;99068.86;4194776;83;21128;-77
2021/06/08 17:59:28;;;;;;;5.58;4.50;;;;;;;22.94;41.68;99076.36;3967140;83;10000322;-78
2021/06/08 18:05:30;;;;;;;9.30;4.70;;;;;;;22.75;42.36;99076.06;4082206;85;21077;-77
2021/06/08 18:11:31;;;;;;;7.47;5.12;;;;;;;22.53;43.13;99085.04;4081290;86;21573;-77
2021/06/08 18:17:36;;;;;;;7.28;4.30;;;;;;;22.20;43.96;99082.39;4082091;84;21636;-77
2021/06/08 18:23:37;;;;;;;8.08;4.12;;;;;;;21.97;44.50;99096.72;4088448;84;21064;-78
2021/06/08 18:29:39;;;;;;;7.37;4.15;;;;;;;21.84;44.35;99102.91;4082408;85;21042;-80
2021/06/08 18:35:40;;;;;;;8.00;3.80;;;;;;;21.70;44.75;99118.06;4119825;84;21021;-77
2021/06/08 18:41:42;;;;;;;7.42;4.53;;;;;;;21.52;44.80;99113.64;4150393;84;21039;-77
2021/06/08 18:47:44;;;;;;;5.92;3.92;;;;;;;21.33;44.96;99119.59;4141357;84;21052;-77
2021/06/08 18:53:46;;;;;;;7.78;5.12;;;;;;;21.15;45.41;99126.31;4138743;84;21052;-77
2021/06/08 18:59:48;;;;;;;10.72;5.30;;;;;;;20.88;45.91;99127.86;4144734;84;20978;-76
2021/06/08 19:05:50;;;;;;;10.35;5.30;;;;;;;20.56;46.27;99134.92;4229944;83;21546;-77
2021/06/08 19:11:51;;;;;;;7.33;4.30;;;;;;;20.22;46.94;99147.14;4230250;83;20972;-77
2021/06/08 19:17:53;;;;;;;9.13;5.42;;;;;;;19.82;47.43;99151.45;4231435;83;21026;-76
2021/06/08 19:23:55;;;;;;;22.87;9.95;;;;;;;19.46;48.10;99159.03;4228446;83;20972;-78
2021/06/08 19:29:57;;;;;;;29.55;14.68;;;;;;;19.21;48.80;99164.30;4115495;81;9999859;-77
2021/06/08 19:36:06;;;;;;;34.60;17.25;;;;;;;18.99;49.49;99163.75;4210268;83;21042;-80
2021/06/08 19:42:08;;;;;;;29.35;14.30;;;;;;;18.74;50.24;99169.17;4195712;83;20999;-78
2021/06/08 19:48:14;;;;;;;20.08;11.25;;;;;;;18.56;51.01;99174.27;4177796;83;21029;-77
2021/06/08 19:54:17;;;;;;;25.90;10.83;;;;;;;18.38;51.80;99179.95;4080736;85;21070;-78
2021/06/08 20:00:22;;;;;;;18.62;8.70;;;;;;;18.08;53.08;99184.19;4083331;85;21095;-77
2021/06/08 20:06:27;;;;;;;18.73;8.53;;;;;;;17.83;53.48;99194.27;4077371;85;21023;-79
2021/06/08 20:12:29;;;;;;;12.03;7.37;;;;;;;17.65;53.67;99201.27;4056729;85;21030;-78
2021/06/08 20:18:35;;;;;;;12.82;7.75;;;;;;;17.40;54.52;99202.17;4087369;85;21081;-77
2021/06/08 20:24:40;;;;;;;11.73;7.35;;;;;;;17.34;55.20;99203.83;4086202;85;21078;-78
2021/06/08 20:30:47;;;;;;;11.20;6.92;;;;;;;17.07;55.64;99207.88;4087899;85;21063;-77
2021/06/08 20:36:57;;;;;;;13.35;7.42;;;;;;;16.89;56.55;99207.31;4116966;84;21048;-80
2021/06/08 20:43:04;;;;;;;12.00;7.45;;;;;;;16.72;57.19;99206.91;4082014;85;21041;-77
2021/06/08 20:49:08;;;;;;;10.93;7.10;;;;;;;16.61;57.94;99212.55;4186084;83;21503;-77
2021/06/08 20:55:30;;;;;;;10.18;7.67;;;;;;;16.53;58.46;99222.67;4210917;83;21002;-77
2021/06/08 21:01:24;;;;;;;12.65;7.83;;;;;;;16.18;58.41;99221.55;4206042;83;21043;-77
2021/06/08 21:07:33;;;;;;;11.30;7.90;;;;;;;16.07;59.24;99219.50;4088496;85;21027;-77
2021/06/08 21:13:42;;;;;;;13.38;8.55;;;;;;;16.00;59.93;99223.09;4087396;85;21033;-77
2021/06/08 21:20:01;;;;;;;11.08;7.67;;;;;;;15.89;60.23;99222.96;4212698;83;21072;-77
2021/06/08 21:26:08;;;;;;;11.48;7.55;;;;;;;15.76;60.74;99223.23;3978163;84;9999750;-77
2021/06/08 21:32:15;;;;;;;11.68;7.83;;;;;;;15.65;61.19;99217.78;4207759;83;20975;-78
2021/06/08 21:38:16;;;;;;;13.10;8.98;;;;;;;15.57;61.50;99221.17;4201179;83;21108;-77
2021/06/08 21:44:24;;;;;;;14.63;7.62;;;;;;;15.41;62.14;99220.86;4205104;83;21137;-77
2021/06/08 21:50:27;;;;;;;11.97;8.53;;;;;;;15.27;61.95;99229.75;4154456;83;21567;-78
2021/06/08 21:56:53;;;;;;;13.77;8.30;;;;;;;14.93;62.94;99237.75;4205192;83;21011;-77
2021/06/08 22:02:57;;;;;;;13.22;7.92;;;;;;;14.93;63.40;99233.61;4192593;83;21039;-77
2021/06/08 22:09:10;;;;;;;12.80;8.70;;;;;;;14.68;63.70;99230.13;4196645;83;21027;-78
2021/06/08 22:15:15;;;;;;;16.90;8.03;;;;;;;14.56;64.28;99227.79;4194376;83;21139;-77
2021/06/08 22:21:21;;;;;;;13.88;7.72;;;;;;;14.39;65.70;99231.34;4204616;83;21781;-78
2021/06/08 22:27:25;;;;;;;23.42;7.60;;;;;;;14.17;66.51;99235.25;4197844;83;21141;-78
2021/06/08 22:33:32;;;;;;;12.73;7.20;;;;;;;14.34;66.49;99229.56;4193572;83;21141;-78
2021/06/08 22:39:42;;;;;;;14.25;7.42;;;;;;;14.32;66.36;99224.45;4211712;83;20981;-78
2021/06/08 22:45:48;;;;;;;12.60;8.10;;;;;;;14.25;67.32;99223.06;4218117;83;21030;-77
2021/06/08 22:51:59;;;;;;;16.27;8.53;;;;;;;14.17;67.66;99220.88;4129567;84;21061;-77
2021/06/08 22:58:02;;;;;;;;;;;;;;;13.82;67.82;99222.81;4119618;85;21618;-77
2021/06/08 23:04:06;;;;;;;15.15;8.25;;;;;;;13.66;69.39;99221.80;4110555;85;20198;-77
2021/06/08 23:10:12;;;;;;;13.75;8.93;;;;;;;13.66;69.16;99219.05;4112351;85;21124;-77
2021/06/08 23:16:13;;;;;;;19.98;8.83;;;;;;;13.90;69.13;99220.27;4112521;85;21121;-77
2021/06/08 23:22:25;;;;;;;13.13;8.88;;;;;;;13.94;69.00;99224.60;4113900;85;21000;-78
2021/06/08 23:28:31;;;;;;;12.78;8.15;;;;;;;14.01;69.27;99222.45;4117110;85;21047;-77
2021/06/08 23:34:42;;;;;;;11.45;7.90;;;;;;;13.76;69.57;99220.25;4103988;85;21108;-77
2021/06/08 23:40:45;;;;;;;;;;;;;;;13.61;69.83;99214.50;4054165;85;21083;-77
2021/06/08 23:46:52;;;;;;;14.23;8.85;;;;;;;13.57;70.58;99215.09;4047126;87;20420;-77
2021/06/08 23:52:54;;;;;;;13.25;8.93;;;;;;;13.50;70.68;99226.09;4043620;85;21597;-77
2021/06/08 23:58:56;;;;;;;15.35;9.05;;;;;;;13.56;70.48;99223.16;3965364;88;21625;-77
